createdAt,value
2018-04-19T00:00:44.296Z,1011.96
2018-04-19T00:01:44.290Z,1011.96
2018-04-19T00:02:44.283Z,1011.99
2018-04-19T00:03:44.277Z,1011.98
2018-04-19T00:04:44.272Z,1011.97
2018-04-19T00:05:44.265Z,1011.98
2018-04-19T00:06:44.259Z,1011.93
2018-04-19T00:07:44.254Z,1011.94
2018-04-19T00:08:44.248Z,1011.94
2018-04-19T00:09:44.243Z,1011.95
2018-04-19T00:10:44.236Z,1011.91
2018-04-19T00:11:44.233Z,1011.94
2018-04-19T00:12:44.228Z,1011.91
2018-04-19T00:13:44.217Z,1011.96
2018-04-19T00:14:44.211Z,1011.99
2018-04-19T00:15:44.207Z,1011.92
2018-04-19T00:16:44.198Z,1011.93
2018-04-19T00:17:44.193Z,1011.90
2018-04-19T00:18:44.186Z,1011.93
2018-04-19T00:19:44.180Z,1011.90
2018-04-19T00:20:44.211Z,1011.91
2018-04-19T00:21:44.167Z,1011.90
2018-04-19T00:22:44.161Z,1011.86
2018-04-19T00:23:44.154Z,1011.88
2018-04-19T00:24:44.151Z,1011.88
2018-04-19T00:25:44.143Z,1011.88
2018-04-19T00:26:44.138Z,1011.87
2018-04-19T00:27:44.131Z,1011.84
2018-04-19T00:28:44.122Z,1011.85
2018-04-19T00:29:44.116Z,1011.85
2018-04-19T00:30:44.109Z,1011.84
2018-04-19T00:31:44.104Z,1011.88
2018-04-19T00:32:44.098Z,1011.87
2018-04-19T00:33:44.092Z,1011.82
2018-04-19T00:34:44.085Z,1011.84
2018-04-19T00:35:44.079Z,1011.82
2018-04-19T00:36:44.084Z,1011.82
2018-04-19T00:37:44.067Z,1011.82
2018-04-19T00:38:44.059Z,1011.82
2018-04-19T00:39:44.056Z,1011.80
2018-04-19T00:40:44.047Z,1011.83
2018-04-19T00:41:44.042Z,1011.79
2018-04-19T00:42:44.035Z,1011.82
2018-04-19T00:43:44.028Z,1011.79
2018-04-19T00:44:44.023Z,1011.81
2018-04-19T00:45:44.017Z,1011.79
2018-04-19T00:46:44.010Z,1011.77
2018-04-19T00:47:44.003Z,1011.77
2018-04-19T00:48:43.996Z,1011.76
2018-04-19T00:49:43.990Z,1011.73
2018-04-19T00:50:43.984Z,1011.72
2018-04-19T00:51:43.979Z,1011.71
2018-04-19T00:52:43.973Z,1011.71
2018-04-19T00:53:43.968Z,1011.71
2018-04-19T00:54:43.960Z,1011.71
2018-04-19T00:55:43.952Z,1011.68
2018-04-19T00:56:43.957Z,1011.73
2018-04-19T00:57:43.940Z,1011.71
2018-04-19T00:58:43.933Z,1011.72
2018-04-19T00:59:43.927Z,1011.70
2018-04-19T01:00:43.921Z,1011.74
2018-04-19T01:01:43.915Z,1011.73
2018-04-19T01:02:43.909Z,1011.69
2018-04-19T01:03:43.902Z,1011.68
2018-04-19T01:04:43.896Z,1011.66
2018-04-19T01:05:43.891Z,1011.69
2018-04-19T01:06:43.884Z,1011.66
2018-04-19T01:07:43.877Z,1011.65
2018-04-19T01:08:43.871Z,1011.61
2018-04-19T01:09:43.867Z,1011.65
2018-04-19T01:10:43.859Z,1011.62
2018-04-19T01:11:43.853Z,1011.63
2018-04-19T01:12:43.847Z,1011.67
2018-04-19T01:13:43.845Z,1011.65
2018-04-19T01:14:43.833Z,1011.68
2018-04-19T01:15:43.828Z,1011.68
2018-04-19T01:16:43.822Z,1011.66
2018-04-19T01:17:43.816Z,1011.67
2018-04-19T01:18:43.809Z,1011.66
2018-04-19T01:19:43.803Z,1011.66
2018-04-19T01:20:43.797Z,1011.68
2018-04-19T01:21:43.790Z,1011.65
2018-04-19T01:22:43.788Z,1011.64
2018-04-19T01:23:43.776Z,1011.64
2018-04-19T01:24:43.772Z,1011.58
2018-04-19T01:25:43.764Z,1011.59
2018-04-19T01:26:43.758Z,1011.62
2018-04-19T01:27:43.752Z,1011.57
2018-04-19T01:28:43.745Z,1011.59
2018-04-19T01:29:43.739Z,1011.56
2018-04-19T01:30:43.739Z,1011.56
2018-04-19T01:31:43.726Z,1011.57
2018-04-19T01:32:43.719Z,1011.58
2018-04-19T01:33:43.713Z,1011.55
2018-04-19T01:34:43.706Z,1011.54
2018-04-19T01:35:43.700Z,1011.56
2018-04-19T01:36:43.694Z,1011.54
2018-04-19T01:37:43.688Z,1011.53
2018-04-19T01:38:43.684Z,1011.53
2018-04-19T01:39:43.675Z,1011.56
2018-04-19T01:40:43.667Z,1011.53
2018-04-19T01:41:43.661Z,1011.54
2018-04-19T01:42:43.655Z,1011.49
2018-04-19T01:43:43.648Z,1011.50
2018-04-19T01:44:43.643Z,1011.57
2018-04-19T01:45:43.636Z,1011.51
2018-04-19T01:46:43.629Z,1011.51
2018-04-19T01:47:43.624Z,1011.52
2018-04-19T01:48:43.616Z,1011.51
2018-04-19T01:49:43.610Z,1011.51
2018-04-19T01:50:43.602Z,1011.49
2018-04-19T01:51:43.596Z,1011.46
2018-04-19T01:52:43.589Z,1011.48
2018-04-19T01:53:43.583Z,1011.47
2018-04-19T01:54:43.575Z,1011.50
2018-04-19T01:55:43.570Z,1011.47
2018-04-19T01:56:43.563Z,1011.47
2018-04-19T01:57:43.555Z,1011.49
2018-04-19T01:58:43.549Z,1011.45
2018-04-19T01:59:43.542Z,1011.43
2018-04-19T02:00:43.541Z,1011.44
2018-04-19T02:01:43.530Z,1011.45
2018-04-19T02:02:43.523Z,1011.45
2018-04-19T02:03:43.516Z,1011.43
2018-04-19T02:04:43.510Z,1011.44
2018-04-19T02:05:43.503Z,1011.43
2018-04-19T02:06:43.495Z,1011.47
2018-04-19T02:07:43.488Z,1011.44
2018-04-19T02:08:43.482Z,1011.51
2018-04-19T02:09:43.476Z,1011.42
2018-04-19T02:10:43.470Z,1011.42
2018-04-19T02:11:43.463Z,1011.42
2018-04-19T02:12:43.463Z,1011.40
2018-04-19T02:13:43.448Z,1011.40
2018-04-19T02:14:43.442Z,1011.38
2018-04-19T02:15:43.434Z,1011.42
2018-04-19T02:16:43.429Z,1011.37
2018-04-19T02:17:43.422Z,1011.37
2018-04-19T02:18:43.460Z,1011.37
2018-04-19T02:19:43.407Z,1011.36
2018-04-19T02:20:43.400Z,1011.38
2018-04-19T02:21:43.393Z,1011.40
2018-04-19T02:22:43.386Z,1011.36
2018-04-19T02:23:43.379Z,1011.38
2018-04-19T02:24:43.373Z,1011.36
2018-04-19T02:25:43.366Z,1011.36
2018-04-19T02:26:43.359Z,1011.39
2018-04-19T02:27:43.359Z,1011.33
2018-04-19T02:28:43.347Z,1011.35
2018-04-19T02:29:43.340Z,1011.31
2018-04-19T02:30:43.333Z,1011.32
2018-04-19T02:31:43.326Z,1011.30
2018-04-19T02:32:43.319Z,1011.32
2018-04-19T02:33:43.312Z,1011.28
2018-04-19T02:34:43.305Z,1011.30
2018-04-19T02:35:43.340Z,1011.29
2018-04-19T02:36:43.292Z,1011.26
2018-04-19T02:37:43.289Z,1011.23
2018-04-19T02:38:43.280Z,1011.23
2018-04-19T02:39:43.272Z,1011.19
2018-04-19T02:40:43.269Z,1011.23
2018-04-19T02:41:43.258Z,1011.24
2018-04-19T02:42:43.250Z,1011.18
2018-04-19T02:43:43.250Z,1011.17
2018-04-19T02:44:43.236Z,1011.15
2018-04-19T02:45:43.230Z,1011.15
2018-04-19T02:46:43.223Z,1011.16
2018-04-19T02:47:43.216Z,1011.15
2018-04-19T02:48:43.207Z,1011.11
2018-04-19T02:49:43.204Z,1011.16
2018-04-19T02:50:43.194Z,1011.14
2018-04-19T02:51:43.188Z,1011.15
2018-04-19T02:52:43.188Z,1011.16
2018-04-19T02:53:43.177Z,1011.14
2018-04-19T02:54:43.186Z,1011.18
2018-04-19T02:55:43.163Z,1011.12
2018-04-19T02:56:43.153Z,1011.13
2018-04-19T02:57:43.168Z,1011.16
2018-04-19T02:58:43.139Z,1011.17
2018-04-19T02:59:43.135Z,1011.12
2018-04-19T03:00:43.126Z,1011.16
2018-04-19T03:01:43.118Z,1011.16
2018-04-19T03:02:43.111Z,1011.17
2018-04-19T03:03:43.105Z,1011.13
2018-04-19T03:04:43.097Z,1011.16
2018-04-19T03:05:43.089Z,1011.13
2018-04-19T03:06:43.082Z,1011.14
2018-04-19T03:07:43.079Z,1011.14
2018-04-19T03:08:43.069Z,1011.17
2018-04-19T03:09:43.062Z,1011.16
2018-04-19T03:10:43.055Z,1011.17
2018-04-19T03:11:43.047Z,1011.15
2018-04-19T03:12:43.040Z,1011.15
2018-04-19T03:13:43.034Z,1011.16
2018-04-19T03:14:43.026Z,1011.17
2018-04-19T03:15:43.021Z,1011.18
2018-04-19T03:16:43.015Z,1011.19
2018-04-19T03:17:43.005Z,1011.17
2018-04-19T03:18:42.998Z,1011.15
2018-04-19T03:19:42.991Z,1011.16
2018-04-19T03:20:42.984Z,1011.13
2018-04-19T03:21:42.978Z,1011.11
2018-04-19T03:22:42.969Z,1011.12
2018-04-19T03:23:42.962Z,1011.10
2018-04-19T03:24:42.956Z,1011.13
2018-04-19T03:25:42.949Z,1011.08
2018-04-19T03:26:42.940Z,1011.04
2018-04-19T03:27:42.933Z,1011.08
2018-04-19T03:28:42.927Z,1011.04
2018-04-19T03:29:42.921Z,1011.06
2018-04-19T03:30:42.913Z,1011.04
2018-04-19T03:31:42.905Z,1011.01
2018-04-19T03:32:42.900Z,1011.05
2018-04-19T03:33:42.891Z,1011.00
2018-04-19T03:34:42.882Z,1011.00
2018-04-19T03:35:42.876Z,1010.95
2018-04-19T03:36:42.869Z,1011.00
2018-04-19T03:37:42.862Z,1010.97
2018-04-19T03:38:42.852Z,1010.95
2018-04-19T03:39:42.847Z,1010.96
2018-04-19T03:40:42.859Z,1010.96
2018-04-19T03:41:42.831Z,1010.95
2018-04-19T03:42:42.824Z,1010.93
2018-04-19T03:43:42.816Z,1010.95
2018-04-19T03:44:42.809Z,1010.92
2018-04-19T03:45:42.801Z,1010.91
2018-04-19T03:46:42.794Z,1010.95
2018-04-19T03:47:42.789Z,1010.94
2018-04-19T03:48:42.779Z,1010.95
2018-04-19T03:49:42.773Z,1010.93
2018-04-19T03:50:42.764Z,1010.93
2018-04-19T03:51:42.756Z,1010.96
2018-04-19T03:52:42.749Z,1010.98
2018-04-19T03:53:42.743Z,1010.93
2018-04-19T03:54:42.734Z,1010.94
2018-04-19T03:55:42.726Z,1010.91
2018-04-19T03:56:42.719Z,1010.91
2018-04-19T03:57:42.712Z,1010.90
2018-04-19T03:58:42.706Z,1010.87
2018-04-19T03:59:42.697Z,1010.91
2018-04-19T04:00:42.691Z,1010.88
2018-04-19T04:01:42.683Z,1010.88
2018-04-19T04:02:42.674Z,1010.86
2018-04-19T04:03:42.667Z,1010.86
2018-04-19T04:04:42.661Z,1010.85
2018-04-19T04:05:42.654Z,1010.85
2018-04-19T04:06:42.645Z,1010.83
2018-04-19T04:07:42.637Z,1010.85
2018-04-19T04:08:42.630Z,1010.86
2018-04-19T04:09:42.622Z,1010.81
2018-04-19T04:10:42.614Z,1010.85
2018-04-19T04:11:42.608Z,1010.85
2018-04-19T04:12:42.600Z,1010.84
2018-04-19T04:13:42.594Z,1010.90
2018-04-19T04:14:42.585Z,1010.88
2018-04-19T04:15:42.578Z,1010.82
2018-04-19T04:16:42.571Z,1010.82
2018-04-19T04:17:42.564Z,1010.82
2018-04-19T04:18:42.555Z,1010.83
2018-04-19T04:19:42.549Z,1010.84
2018-04-19T04:20:42.540Z,1010.84
2018-04-19T04:21:42.533Z,1010.84
2018-04-19T04:22:42.529Z,1010.82
2018-04-19T04:23:42.518Z,1010.81
2018-04-19T04:24:42.509Z,1010.83
2018-04-19T04:25:42.502Z,1010.82
2018-04-19T04:26:42.495Z,1010.82
2018-04-19T04:27:42.490Z,1010.79
2018-04-19T04:28:42.479Z,1010.78
2018-04-19T04:29:42.472Z,1010.80
2018-04-19T04:30:42.465Z,1010.78
2018-04-19T04:31:42.461Z,1010.77
2018-04-19T04:32:42.450Z,1010.75
2018-04-19T04:33:42.448Z,1010.74
2018-04-19T04:34:42.434Z,1010.70
2018-04-19T04:35:42.427Z,1010.75
2018-04-19T04:36:42.418Z,1010.74
2018-04-19T04:37:42.411Z,1010.69
2018-04-19T04:38:42.407Z,1010.75
2018-04-19T04:39:42.400Z,1010.75
2018-04-19T04:40:42.388Z,1010.72
2018-04-19T04:41:42.385Z,1010.72
2018-04-19T04:42:42.373Z,1010.72
2018-04-19T04:43:42.366Z,1010.69
2018-04-19T04:44:42.359Z,1010.67
2018-04-19T04:45:42.352Z,1010.69
2018-04-19T04:46:42.345Z,1010.64
2018-04-19T04:47:42.340Z,1010.69
2018-04-19T04:48:42.328Z,1010.66
2018-04-19T04:49:42.320Z,1010.68
2018-04-19T04:50:42.312Z,1010.70
2018-04-19T04:51:42.307Z,1010.72
2018-04-19T04:52:42.298Z,1010.69
2018-04-19T04:53:42.293Z,1010.71
2018-04-19T04:54:42.282Z,1010.72
2018-04-19T04:55:42.276Z,1010.72
2018-04-19T04:56:42.269Z,1010.72
2018-04-19T04:57:42.263Z,1010.71
2018-04-19T04:58:42.254Z,1010.70
2018-04-19T04:59:42.247Z,1010.71
2018-04-19T05:00:42.240Z,1010.72
2018-04-19T05:01:42.233Z,1010.70
2018-04-19T05:02:42.225Z,1010.69
2018-04-19T05:03:42.218Z,1010.70
2018-04-19T05:04:42.210Z,1010.71
2018-04-19T05:05:42.224Z,1010.76
2018-04-19T05:06:42.197Z,1010.75
2018-04-19T05:07:42.188Z,1010.68
2018-04-19T05:08:42.182Z,1010.66
2018-04-19T05:09:42.174Z,1010.68
2018-04-19T05:10:42.166Z,1010.67
2018-04-19T05:11:42.161Z,1010.64
2018-04-19T05:12:42.154Z,1010.65
2018-04-19T05:13:42.146Z,1010.66
2018-04-19T05:14:42.138Z,1010.66
2018-04-19T05:15:42.133Z,1010.63
2018-04-19T05:16:42.126Z,1010.58
2018-04-19T05:17:42.118Z,1010.59
2018-04-19T05:18:42.110Z,1010.59
2018-04-19T05:19:42.103Z,1010.65
2018-04-19T05:20:42.101Z,1010.62
2018-04-19T05:21:42.091Z,1010.63
2018-04-19T05:22:42.083Z,1010.62
2018-04-19T05:23:42.076Z,1010.61
2018-04-19T05:24:42.070Z,1010.61
2018-04-19T05:25:42.065Z,1010.59
2018-04-19T05:26:42.057Z,1010.64
2018-04-19T05:27:42.055Z,1010.58
2018-04-19T05:28:42.042Z,1010.66
2018-04-19T05:29:42.038Z,1010.64
2018-04-19T05:30:42.030Z,1010.64
2018-04-19T05:31:42.039Z,1010.65
2018-04-19T05:32:42.017Z,1010.63
2018-04-19T05:33:42.011Z,1010.64
2018-04-19T05:34:42.007Z,1010.74
2018-04-19T05:35:41.997Z,1010.72
2018-04-19T05:36:41.990Z,1010.74
2018-04-19T05:37:41.984Z,1010.72
2018-04-19T05:38:41.977Z,1010.76
2018-04-19T05:39:41.970Z,1010.74
2018-04-19T05:40:41.964Z,1010.75
2018-04-19T05:41:41.959Z,1010.76
2018-04-19T05:42:41.951Z,1010.74
2018-04-19T05:43:41.945Z,1010.77
2018-04-19T05:44:41.939Z,1010.78
2018-04-19T05:45:41.933Z,1010.78
2018-04-19T05:46:41.926Z,1010.75
2018-04-19T05:47:41.919Z,1010.79
2018-04-19T05:48:41.947Z,1010.79
2018-04-19T05:49:41.907Z,1010.78
2018-04-19T05:50:41.900Z,1010.80
2018-04-19T05:51:41.895Z,1010.80
2018-04-19T05:52:41.889Z,1010.86
2018-04-19T05:53:41.884Z,1010.82
2018-04-19T05:54:41.878Z,1010.84
2018-04-19T05:55:41.873Z,1010.79
2018-04-19T05:56:41.867Z,1010.81
2018-04-19T05:57:41.861Z,1010.87
2018-04-19T05:58:41.857Z,1010.85
2018-04-19T05:59:41.854Z,1010.85
2018-04-19T06:00:41.844Z,1010.82
2018-04-19T06:01:41.837Z,1010.85
2018-04-19T06:02:41.831Z,1010.92
2018-04-19T06:03:41.827Z,1010.87
2018-04-19T06:04:41.822Z,1010.90
2018-04-19T06:05:41.818Z,1010.89
2018-04-19T06:06:41.812Z,1010.91
2018-04-19T06:07:41.810Z,1010.92
2018-04-19T06:08:41.857Z,1010.94
2018-04-19T06:09:41.803Z,1010.97
2018-04-19T06:10:41.790Z,1010.96
2018-04-19T06:11:41.787Z,1010.96
2018-04-19T06:12:41.781Z,1010.93
2018-04-19T06:13:41.775Z,1010.99
2018-04-19T06:14:41.770Z,1010.99
2018-04-19T06:15:41.767Z,1010.97
2018-04-19T06:16:41.761Z,1011.02
2018-04-19T06:17:41.758Z,1010.97
2018-04-19T06:18:41.751Z,1010.96
2018-04-19T06:19:41.751Z,1011.00
2018-04-19T06:20:41.743Z,1010.98
2018-04-19T06:21:41.739Z,1010.94
2018-04-19T06:22:41.734Z,1010.93
2018-04-19T06:23:41.730Z,1010.96
2018-04-19T06:24:41.726Z,1010.93
2018-04-19T06:25:41.721Z,1010.93
2018-04-19T06:26:41.715Z,1010.92
2018-04-19T06:27:41.715Z,1010.94
2018-04-19T06:28:41.710Z,1010.89
2018-04-19T06:29:41.706Z,1010.93
2018-04-19T06:30:41.698Z,1010.86
2018-04-19T06:31:41.693Z,1010.90
2018-04-19T06:32:41.690Z,1010.88
2018-04-19T06:33:41.686Z,1010.90
2018-04-19T06:34:41.687Z,1010.89
2018-04-19T06:35:41.677Z,1010.87
2018-04-19T06:36:41.673Z,1010.81
2018-04-19T06:37:41.671Z,1010.87
2018-04-19T06:38:41.665Z,1010.88
2018-04-19T06:39:41.662Z,1010.91
2018-04-19T06:40:41.658Z,1010.91
2018-04-19T06:41:41.654Z,1010.89
2018-04-19T06:42:41.649Z,1010.91
2018-04-19T06:43:41.647Z,1010.91
2018-04-19T06:44:41.642Z,1010.95
2018-04-19T06:45:41.642Z,1010.94
2018-04-19T06:46:41.635Z,1010.93
2018-04-19T06:47:41.635Z,1010.92
2018-04-19T06:48:41.628Z,1010.98
2018-04-19T06:49:41.626Z,1010.96
2018-04-19T06:50:41.622Z,1010.97
2018-04-19T06:51:41.618Z,1010.97
2018-04-19T06:52:41.617Z,1010.95
2018-04-19T06:53:41.613Z,1010.96
2018-04-19T06:54:41.610Z,1011.00
2018-04-19T06:55:41.608Z,1010.97
2018-04-19T06:56:41.605Z,1010.96
2018-04-19T06:57:41.602Z,1010.96
2018-04-19T06:58:41.598Z,1011.00
2018-04-19T06:59:41.597Z,1010.96
2018-04-19T07:00:41.595Z,1010.99
2018-04-19T07:01:41.596Z,1010.96
2018-04-19T07:02:41.595Z,1011.00
2018-04-19T07:03:41.588Z,1010.98
2018-04-19T07:04:41.584Z,1011.01
2018-04-19T07:05:41.585Z,1011.01
2018-04-19T07:06:41.584Z,1011.01
2018-04-19T07:07:41.579Z,1011.04
2018-04-19T07:08:41.577Z,1011.04
2018-04-19T07:09:41.579Z,1011.09
2018-04-19T07:10:41.574Z,1011.07
2018-04-19T07:11:41.572Z,1011.03
2018-04-19T07:12:41.572Z,1011.06
2018-04-19T07:13:41.571Z,1011.01
2018-04-19T07:14:41.623Z,1011.01
2018-04-19T07:15:41.570Z,1011.06
2018-04-19T07:16:41.571Z,1011.08
2018-04-19T07:17:41.573Z,1011.05
2018-04-19T07:18:41.574Z,1011.11
2018-04-19T07:19:41.578Z,1011.09
2018-04-19T07:20:41.577Z,1011.08
2018-04-19T07:21:41.580Z,1011.08
2018-04-19T07:22:41.584Z,1011.07
2018-04-19T07:23:41.592Z,1011.09
2018-04-19T07:24:41.592Z,1011.09
2018-04-19T07:25:41.602Z,1011.12
2018-04-19T07:26:41.602Z,1011.11
2018-04-19T07:27:41.607Z,1011.08
2018-04-19T07:28:41.613Z,1011.12
2018-04-19T07:29:41.621Z,1011.15
2018-04-19T07:30:41.629Z,1011.13
2018-04-19T07:31:41.631Z,1011.15
2018-04-19T07:32:41.640Z,1011.14
2018-04-19T07:33:41.648Z,1011.13
2018-04-19T07:34:41.652Z,1011.10
2018-04-19T07:35:41.661Z,1011.17
2018-04-19T07:36:41.669Z,1011.21
2018-04-19T07:37:41.679Z,1011.22
2018-04-19T07:38:41.684Z,1011.19
2018-04-19T07:39:41.692Z,1011.15
2018-04-19T07:40:41.702Z,1011.15
2018-04-19T07:41:41.712Z,1011.19
2018-04-19T07:42:41.717Z,1011.23
2018-04-19T07:43:41.726Z,1011.20
2018-04-19T07:44:41.738Z,1011.21
2018-04-19T07:45:41.743Z,1011.23
2018-04-19T07:46:41.752Z,1011.24
2018-04-19T07:47:41.762Z,1011.23
2018-04-19T07:48:41.772Z,1011.26
2018-04-19T07:49:41.781Z,1011.23
2018-04-19T07:50:41.791Z,1011.29
2018-04-19T07:51:41.799Z,1011.26
2018-04-19T07:52:41.810Z,1011.28
2018-04-19T07:53:41.820Z,1011.21
2018-04-19T07:54:41.830Z,1011.25
2018-04-19T07:55:41.839Z,1011.25
2018-04-19T07:56:41.853Z,1011.23
2018-04-19T07:58:41.879Z,1011.22
2018-04-19T07:59:41.883Z,1011.21
2018-04-19T08:00:41.892Z,1011.20
2018-04-19T08:01:41.903Z,1011.24
2018-04-19T08:02:41.913Z,1011.26
2018-04-19T08:03:41.924Z,1011.26
2018-04-19T08:04:41.936Z,1011.26
2018-04-19T08:05:41.948Z,1011.25
2018-04-19T08:06:41.964Z,1011.26
2018-04-19T08:07:41.971Z,1011.26
2018-04-19T08:08:41.981Z,1011.27
2018-04-19T08:09:41.994Z,1011.25
2018-04-19T08:10:42.004Z,1011.27
2018-04-19T08:11:42.017Z,1011.25
2018-04-19T08:12:42.034Z,1011.24
2018-04-19T08:13:42.041Z,1011.27
2018-04-19T08:14:42.052Z,1011.22
2018-04-19T08:15:42.063Z,1011.23
2018-04-19T08:16:42.079Z,1011.28
2018-04-19T08:17:42.088Z,1011.27
2018-04-19T08:18:42.100Z,1011.24
2018-04-19T08:19:42.111Z,1011.25
2018-04-19T08:20:42.125Z,1011.27
2018-04-19T08:21:42.138Z,1011.29
2018-04-19T08:22:42.150Z,1011.22
2018-04-19T08:23:42.162Z,1011.28
2018-04-19T08:24:42.176Z,1011.23
2018-04-19T08:25:42.189Z,1011.24
2018-04-19T08:26:42.202Z,1011.25
2018-04-19T08:27:42.216Z,1011.27
2018-04-19T08:28:42.229Z,1011.21
2018-04-19T08:29:42.251Z,1011.22
2018-04-19T08:30:42.255Z,1011.23
2018-04-19T08:31:42.269Z,1011.18
2018-04-19T08:32:42.283Z,1011.20
2018-04-19T08:33:42.297Z,1011.19
2018-04-19T08:34:42.308Z,1011.17
2018-04-19T08:35:42.324Z,1011.16
2018-04-19T08:36:42.337Z,1011.18
2018-04-19T08:37:42.351Z,1011.18
2018-04-19T08:38:42.383Z,1011.18
2018-04-19T08:39:42.378Z,1011.19
2018-04-19T08:40:42.392Z,1011.20
2018-04-19T08:41:42.406Z,1011.19
2018-04-19T08:42:42.419Z,1011.23
2018-04-19T08:43:42.434Z,1011.20
2018-04-19T08:44:42.448Z,1011.20
2018-04-19T08:45:42.463Z,1011.21
2018-04-19T08:46:42.477Z,1011.20
2018-04-19T08:47:42.491Z,1011.21
2018-04-19T08:48:42.506Z,1011.13
2018-04-19T08:49:42.520Z,1011.14
2018-04-19T08:50:42.534Z,1011.14
2018-04-19T08:51:42.550Z,1011.19
2018-04-19T08:52:42.563Z,1011.22
2018-04-19T08:53:42.579Z,1011.18
2018-04-19T08:54:42.594Z,1011.22
2018-04-19T08:55:42.605Z,1011.16
2018-04-19T08:56:42.620Z,1011.20
2018-04-19T08:57:42.633Z,1011.20
2018-04-19T08:58:42.645Z,1011.22
2018-04-19T08:59:42.660Z,1011.21
2018-04-19T09:00:42.676Z,1011.18
2018-04-19T09:01:42.687Z,1011.21
2018-04-19T09:02:42.732Z,1011.22
2018-04-19T09:03:42.715Z,1011.20
2018-04-19T09:04:42.730Z,1011.15
2018-04-19T09:05:42.744Z,1011.15
2018-04-19T09:06:42.755Z,1011.18
2018-04-19T09:07:42.772Z,1011.13
2018-04-19T09:08:42.783Z,1011.14
2018-04-19T09:09:42.801Z,1011.10
2018-04-19T09:10:42.813Z,1011.14
2018-04-19T09:11:42.827Z,1011.20
2018-04-19T09:12:42.841Z,1011.19
2018-04-19T09:13:42.856Z,1011.23
2018-04-19T09:14:42.868Z,1011.17
2018-04-19T09:15:42.885Z,1011.19
2018-04-19T09:16:42.898Z,1011.22
2018-04-19T09:17:42.914Z,1011.18
2018-04-19T09:18:42.928Z,1011.22
2018-04-19T09:19:42.943Z,1011.30
2018-04-19T09:20:42.958Z,1011.26
2018-04-19T09:21:42.974Z,1011.28
2018-04-19T09:22:42.989Z,1011.30
2018-04-19T09:23:43.004Z,1011.28
2018-04-19T09:24:43.020Z,1011.30
2018-04-19T09:25:43.036Z,1011.32
2018-04-19T09:26:43.063Z,1011.30
2018-04-19T09:27:43.067Z,1011.35
2018-04-19T09:28:43.081Z,1011.34
2018-04-19T09:29:43.097Z,1011.35
2018-04-19T09:30:43.116Z,1011.29
2018-04-19T09:31:43.133Z,1011.30
2018-04-19T09:32:43.146Z,1011.22
2018-04-19T09:33:43.161Z,1011.23
2018-04-19T09:34:43.176Z,1011.23
2018-04-19T09:35:43.193Z,1011.25
2018-04-19T09:36:43.214Z,1011.24
2018-04-19T09:37:43.227Z,1011.19
2018-04-19T09:38:43.243Z,1011.21
2018-04-19T09:39:43.262Z,1011.20
2018-04-19T09:40:43.278Z,1011.20
2018-04-19T09:41:43.297Z,1011.22
2018-04-19T09:42:43.313Z,1011.21
2018-04-19T09:43:43.329Z,1011.24
2018-04-19T09:44:43.347Z,1011.23
2018-04-19T09:45:43.365Z,1011.18
2018-04-19T09:46:43.386Z,1011.14
2018-04-19T09:47:43.396Z,1011.21
2018-04-19T09:48:43.413Z,1011.20
2018-04-19T09:49:43.431Z,1011.21
2018-04-19T09:50:43.446Z,1011.23
2018-04-19T09:51:43.464Z,1011.24
2018-04-19T09:52:43.487Z,1011.21
2018-04-19T09:53:43.497Z,1011.20
2018-04-19T09:54:43.519Z,1011.17
2018-04-19T09:55:43.530Z,1011.21
2018-04-19T09:56:43.548Z,1011.22
2018-04-19T09:57:43.566Z,1011.23
2018-04-19T09:58:43.585Z,1011.22
2018-04-19T09:59:43.600Z,1011.21
2018-04-19T10:00:43.620Z,1011.21
2018-04-19T10:01:43.637Z,1011.22
2018-04-19T10:02:43.652Z,1011.21
2018-04-19T10:03:43.672Z,1011.22
2018-04-19T10:04:43.689Z,1011.19
2018-04-19T10:05:43.707Z,1011.16
2018-04-19T10:06:43.725Z,1011.19
2018-04-19T10:07:43.744Z,1011.17
2018-04-19T10:08:43.763Z,1011.20
2018-04-19T10:09:43.782Z,1011.19
2018-04-19T10:10:43.800Z,1011.20
2018-04-19T10:11:43.818Z,1011.17
2018-04-19T10:12:43.840Z,1011.08
2018-04-19T10:13:43.858Z,1011.09
2018-04-19T10:14:43.875Z,1011.07
2018-04-19T10:15:43.895Z,1011.07
2018-04-19T10:16:43.914Z,1011.06
2018-04-19T10:17:43.934Z,1011.04
2018-04-19T10:18:43.954Z,1011.06
2018-04-19T10:19:43.973Z,1011.02
2018-04-19T10:20:43.993Z,1011.00
2018-04-19T10:21:44.012Z,1010.99
2018-04-19T10:22:44.032Z,1011.00
2018-04-19T10:23:44.049Z,1010.96
2018-04-19T10:24:44.067Z,1010.96
2018-04-19T10:25:44.087Z,1011.02
2018-04-19T10:26:44.104Z,1011.02
2018-04-19T10:27:44.122Z,1010.99
2018-04-19T10:28:44.142Z,1010.96
2018-04-19T10:29:44.161Z,1010.98
2018-04-19T10:30:44.178Z,1010.95
2018-04-19T10:31:44.196Z,1011.01
2018-04-19T10:32:44.214Z,1010.98
2018-04-19T10:33:44.247Z,1010.99
2018-04-19T10:34:44.250Z,1010.99
2018-04-19T10:35:44.271Z,1010.97
2018-04-19T10:36:44.287Z,1010.94
2018-04-19T10:37:44.304Z,1010.93
2018-04-19T10:38:44.321Z,1010.94
2018-04-19T10:39:44.339Z,1010.93
2018-04-19T10:40:44.358Z,1010.90
2018-04-19T10:41:44.376Z,1010.93
2018-04-19T10:42:44.393Z,1010.97
2018-04-19T10:43:44.410Z,1010.86
2018-04-19T10:44:44.428Z,1010.83
2018-04-19T10:45:44.446Z,1010.87
2018-04-19T10:46:44.461Z,1010.85
2018-04-19T10:47:44.482Z,1010.83
2018-04-19T10:48:44.496Z,1010.82
2018-04-19T10:49:44.514Z,1010.80
2018-04-19T10:50:44.531Z,1010.84
2018-04-19T10:51:44.550Z,1010.78
2018-04-19T10:52:44.565Z,1010.71
2018-04-19T10:53:44.583Z,1010.78
2018-04-19T10:54:44.600Z,1010.72
2018-04-19T10:55:44.617Z,1010.68
2018-04-19T10:56:44.634Z,1010.69
2018-04-19T10:57:44.649Z,1010.66
2018-04-19T10:58:44.666Z,1010.72
2018-04-19T10:59:44.684Z,1010.65
2018-04-19T11:00:44.700Z,1010.70
2018-04-19T11:01:44.716Z,1010.66
2018-04-19T11:02:44.732Z,1010.66
2018-04-19T11:03:44.751Z,1010.67
2018-04-19T11:04:44.767Z,1010.66
2018-04-19T11:05:44.783Z,1010.62
2018-04-19T11:06:44.799Z,1010.71
2018-04-19T11:07:44.817Z,1010.63
2018-04-19T11:08:44.834Z,1010.62
2018-04-19T11:09:44.852Z,1010.62
2018-04-19T11:10:44.867Z,1010.59
2018-04-19T11:11:44.886Z,1010.59
2018-04-19T11:12:44.902Z,1010.62
2018-04-19T11:13:44.920Z,1010.56
2018-04-19T11:14:44.934Z,1010.53
2018-04-19T11:15:44.954Z,1010.52
2018-04-19T11:16:44.968Z,1010.54
2018-04-19T11:17:44.986Z,1010.52
2018-04-19T11:18:45.004Z,1010.53
2018-04-19T11:19:45.023Z,1010.56
2018-04-19T11:20:45.035Z,1010.55
2018-04-19T11:21:45.052Z,1010.52
2018-04-19T11:22:45.068Z,1010.53
2018-04-19T11:23:45.084Z,1010.53
2018-04-19T11:24:45.102Z,1010.54
2018-04-19T11:25:45.118Z,1010.52
2018-04-19T11:26:45.135Z,1010.44
2018-04-19T11:27:45.153Z,1010.49
2018-04-19T11:28:45.168Z,1010.56
2018-04-19T11:29:45.184Z,1010.51
2018-04-19T11:30:45.201Z,1010.45
2018-04-19T11:31:45.216Z,1010.43
2018-04-19T11:32:45.234Z,1010.42
2018-04-19T11:33:45.255Z,1010.43
2018-04-19T11:34:45.266Z,1010.48
2018-04-19T11:35:45.285Z,1010.41
2018-04-19T11:36:45.300Z,1010.35
2018-04-19T11:37:45.316Z,1010.38
2018-04-19T11:38:45.333Z,1010.34
2018-04-19T11:39:45.347Z,1010.33
2018-04-19T11:40:45.367Z,1010.29
2018-04-19T11:41:45.382Z,1010.34
2018-04-19T11:42:45.397Z,1010.35
2018-04-19T11:43:45.413Z,1010.33
2018-04-19T11:44:45.431Z,1010.36
2018-04-19T11:45:45.448Z,1010.38
2018-04-19T11:46:45.464Z,1010.34
2018-04-19T11:47:45.479Z,1010.35
2018-04-19T11:48:45.498Z,1010.38
2018-04-19T11:49:45.517Z,1010.33
2018-04-19T11:50:45.529Z,1010.31
2018-04-19T11:51:45.546Z,1010.36
2018-04-19T11:52:45.564Z,1010.32
2018-04-19T11:53:45.579Z,1010.30
2018-04-19T11:54:45.596Z,1010.31
2018-04-19T11:55:45.612Z,1010.25
2018-04-19T11:56:45.628Z,1010.26
2018-04-19T11:57:45.645Z,1010.21
2018-04-19T11:58:45.660Z,1010.22
2018-04-19T11:59:45.675Z,1010.21
2018-04-19T12:00:45.690Z,1010.20
2018-04-19T12:01:45.707Z,1010.14
2018-04-19T12:02:45.720Z,1010.17
2018-04-19T12:03:45.737Z,1010.20
2018-04-19T12:04:45.752Z,1010.14
2018-04-19T12:05:45.769Z,1010.18
2018-04-19T12:06:45.785Z,1010.14